sensor_id;sensor_type;location;lat;lon;timestamp;pressure;altitude;pressure_sealevel;temperature;humidity
18697;BME280;22617;43.690;27.956;2023-02-04T00:04:50;98664.94;;;1.16;73.92
18697;BME280;22617;43.690;27.956;2023-02-04T00:09:53;98665.50;;;0.75;74.68
18697;BME280;22617;43.690;27.956;2023-02-04T00:14:58;98651.72;;;0.71;74.85
18697;BME280;22617;43.690;27.956;2023-02-04T00:20:04;98649.88;;;0.67;74.40
18697;BME280;22617;43.690;27.956;2023-02-04T00:25:08;98644.66;;;0.64;75.07
18697;BME280;22617;43.690;27.956;2023-02-04T00:30:13;98637.84;;;0.65;75.05
18697;BME280;22617;43.690;27.956;2023-02-04T00:35:17;98631.50;;;0.52;75.06
18697;BME280;22617;43.690;27.956;2023-02-04T00:40:20;98640.69;;;0.46;74.89
18697;BME280;22617;43.690;27.956;2023-02-04T00:45:25;98631.81;;;0.34;75.49
18697;BME280;22617;43.690;27.956;2023-02-04T00:50:29;98626.53;;;0.28;75.49
18697;BME280;22617;43.690;27.956;2023-02-04T00:55:32;98627.94;;;0.19;75.98
18697;BME280;22617;43.690;27.956;2023-02-04T01:00:37;98616.34;;;0.31;75.69
18697;BME280;22617;43.690;27.956;2023-02-04T01:05:41;98618.44;;;0.43;75.85
18697;BME280;22617;43.690;27.956;2023-02-04T01:10:44;98617.69;;;0.47;75.16
18697;BME280;22617;43.690;27.956;2023-02-04T01:15:50;98601.06;;;0.64;74.27
18697;BME280;22617;43.690;27.956;2023-02-04T01:20:53;98597.69;;;0.65;75.02
18697;BME280;22617;43.690;27.956;2023-02-04T01:25:57;98592.81;;;0.74;74.34
18697;BME280;22617;43.690;27.956;2023-02-04T01:31:01;98573.22;;;0.76;74.17
18697;BME280;22617;43.690;27.956;2023-02-04T01:36:05;98563.53;;;0.98;73.57
18697;BME280;22617;43.690;27.956;2023-02-04T01:41:09;98561.06;;;1.01;72.73
18697;BME280;22617;43.690;27.956;2023-02-04T01:46:14;98554.19;;;1.33;72.00
18697;BME280;22617;43.690;27.956;2023-02-04T01:51:24;98549.09;;;1.36;71.54
18697;BME280;22617;43.690;27.956;2023-02-04T01:56:30;98539.94;;;1.45;71.39
18697;BME280;22617;43.690;27.956;2023-02-04T02:01:36;98541.72;;;1.48;71.16
18697;BME280;22617;43.690;27.956;2023-02-04T02:06:44;98540.69;;;1.41;71.52
18697;BME280;22617;43.690;27.956;2023-02-04T02:11:49;98530.44;;;1.41;71.95
18697;BME280;22617;43.690;27.956;2023-02-04T02:16:54;98534.03;;;1.49;72.19
18697;BME280;22617;43.690;27.956;2023-02-04T02:22:03;98533.03;;;1.43;73.25
18697;BME280;22617;43.690;27.956;2023-02-04T02:27:11;98543.81;;;1.28;75.26
18697;BME280;22617;43.690;27.956;2023-02-04T02:32:14;98525.25;;;1.40;77.03
18697;BME280;22617;43.690;27.956;2023-02-04T02:37:19;98507.81;;;1.26;78.46
18697;BME280;22617;43.690;27.956;2023-02-04T02:42:24;98503.44;;;1.22;79.40
18697;BME280;22617;43.690;27.956;2023-02-04T02:47:28;98503.28;;;1.15;80.60
18697;BME280;22617;43.690;27.956;2023-02-04T02:52:33;98489.56;;;1.14;81.65
18697;BME280;22617;43.690;27.956;2023-02-04T02:57:38;98477.34;;;1.04;83.08
18697;BME280;22617;43.690;27.956;2023-02-04T03:02:42;98474.19;;;1.16;83.80
18697;BME280;22617;43.690;27.956;2023-02-04T03:07:45;98467.09;;;1.06;84.28
18697;BME280;22617;43.690;27.956;2023-02-04T03:12:50;98462.31;;;1.19;83.78
18697;BME280;22617;43.690;27.956;2023-02-04T03:17:54;98450.28;;;1.17;84.17
18697;BME280;22617;43.690;27.956;2023-02-04T03:22:58;98452.06;;;1.21;83.93
18697;BME280;22617;43.690;27.956;2023-02-04T03:28:04;98441.25;;;1.33;83.43
18697;BME280;22617;43.690;27.956;2023-02-04T03:33:07;98436.97;;;1.33;83.08
18697;BME280;22617;43.690;27.956;2023-02-04T03:38:11;98421.22;;;1.18;82.30
18697;BME280;22617;43.690;27.956;2023-02-04T03:43:15;98428.78;;;1.12;82.18
18697;BME280;22617;43.690;27.956;2023-02-04T03:48:19;98423.72;;;1.15;82.29
18697;BME280;22617;43.690;27.956;2023-02-04T03:53:22;98408.34;;;1.16;82.47
18697;BME280;22617;43.690;27.956;2023-02-04T03:58:27;98398.16;;;1.19;82.18
18697;BME280;22617;43.690;27.956;2023-02-04T04:03:30;98393.81;;;1.17;82.15
18697;BME280;22617;43.690;27.956;2023-02-04T04:08:34;98385.69;;;1.36;81.96
18697;BME280;22617;43.690;27.956;2023-02-04T04:13:39;98375.81;;;1.15;81.60
18697;BME280;22617;43.690;27.956;2023-02-04T04:18:43;98368.13;;;1.15;81.48
18697;BME280;22617;43.690;27.956;2023-02-04T04:23:46;98361.56;;;1.28;81.53
18697;BME280;22617;43.690;27.956;2023-02-04T04:28:51;98349.56;;;1.27;80.79
18697;BME280;22617;43.690;27.956;2023-02-04T04:33:54;98343.44;;;1.20;81.62
18697;BME280;22617;43.690;27.956;2023-02-04T04:38:58;98346.66;;;1.10;82.86
18697;BME280;22617;43.690;27.956;2023-02-04T04:44:03;98332.53;;;1.29;84.00
18697;BME280;22617;43.690;27.956;2023-02-04T04:49:06;98327.38;;;1.29;84.37
18697;BME280;22617;43.690;27.956;2023-02-04T04:54:10;98327.41;;;1.30;84.83
18697;BME280;22617;43.690;27.956;2023-02-04T04:59:14;98327.69;;;1.04;85.36
18697;BME280;22617;43.690;27.956;2023-02-04T05:04:18;98310.59;;;1.06;86.03
18697;BME280;22617;43.690;27.956;2023-02-04T05:09:22;98316.06;;;1.19;86.29
18697;BME280;22617;43.690;27.956;2023-02-04T05:14:27;98308.13;;;1.09;86.81
18697;BME280;22617;43.690;27.956;2023-02-04T05:19:31;98303.66;;;1.00;87.08
18697;BME280;22617;43.690;27.956;2023-02-04T05:24:34;98301.19;;;1.05;87.01
18697;BME280;22617;43.690;27.956;2023-02-04T05:29:39;98295.28;;;1.09;87.07
18697;BME280;22617;43.690;27.956;2023-02-04T05:34:42;98285.81;;;1.06;87.51
18697;BME280;22617;43.690;27.956;2023-02-04T05:39:46;98284.50;;;1.23;87.33
18697;BME280;22617;43.690;27.956;2023-02-04T05:44:51;98278.84;;;1.41;86.96
18697;BME280;22617;43.690;27.956;2023-02-04T05:49:54;98288.81;;;1.26;86.95
18697;BME280;22617;43.690;27.956;2023-02-04T05:54:58;98285.44;;;1.28;86.98
18697;BME280;22617;43.690;27.956;2023-02-04T06:00:07;98278.63;;;1.29;86.97
18697;BME280;22617;43.690;27.956;2023-02-04T06:05:14;98275.97;;;1.26;87.14
18697;BME280;22617;43.690;27.956;2023-02-04T06:10:19;98281.97;;;1.26;87.02
18697;BME280;22617;43.690;27.956;2023-02-04T06:15:24;98275.28;;;1.33;87.07
18697;BME280;22617;43.690;27.956;2023-02-04T06:20:28;98275.28;;;1.33;86.86
18697;BME280;22617;43.690;27.956;2023-02-04T06:25:32;98270.94;;;1.30;86.81
18697;BME280;22617;43.690;27.956;2023-02-04T06:30:37;98267.59;;;1.33;87.18
18697;BME280;22617;43.690;27.956;2023-02-04T06:35:40;98273.75;;;1.43;87.06
18697;BME280;22617;43.690;27.956;2023-02-04T06:40:44;98278.22;;;1.51;86.83
18697;BME280;22617;43.690;27.956;2023-02-04T06:45:51;98273.06;;;1.51;87.25
18697;BME280;22617;43.690;27.956;2023-02-04T06:50:55;98267.81;;;1.45;87.31
18697;BME280;22617;43.690;27.956;2023-02-04T06:55:58;98269.41;;;1.40;87.25
18697;BME280;22617;43.690;27.956;2023-02-04T07:01:04;98274.50;;;1.37;88.06
18697;BME280;22617;43.690;27.956;2023-02-04T07:06:07;98272.03;;;1.42;88.37
18697;BME280;22617;43.690;27.956;2023-02-04T07:11:11;98266.28;;;1.53;88.61
18697;BME280;22617;43.690;27.956;2023-02-04T07:16:16;98263.50;;;1.44;89.10
18697;BME280;22617;43.690;27.956;2023-02-04T07:21:19;98258.44;;;1.47;89.76
18697;BME280;22617;43.690;27.956;2023-02-04T07:26:23;98248.97;;;1.43;89.93
18697;BME280;22617;43.690;27.956;2023-02-04T07:31:28;98249.69;;;1.38;90.61
18697;BME280;22617;43.690;27.956;2023-02-04T07:36:31;98248.88;;;1.40;90.92
18697;BME280;22617;43.690;27.956;2023-02-04T07:41:35;98244.84;;;1.51;91.27
18697;BME280;22617;43.690;27.956;2023-02-04T07:46:40;98241.66;;;1.64;91.25
18697;BME280;22617;43.690;27.956;2023-02-04T07:51:44;98239.41;;;1.83;91.40
18697;BME280;22617;43.690;27.956;2023-02-04T07:56:47;98222.66;;;2.03;91.49
18697;BME280;22617;43.690;27.956;2023-02-04T08:01:53;98221.31;;;2.26;91.23
18697;BME280;22617;43.690;27.956;2023-02-04T08:06:56;98221.09;;;2.11;91.04
18697;BME280;22617;43.690;27.956;2023-02-04T08:12:00;98219.59;;;2.27;90.87
18697;BME280;22617;43.690;27.956;2023-02-04T08:17:04;98220.19;;;2.09;90.88
18697;BME280;22617;43.690;27.956;2023-02-04T08:22:08;98213.75;;;2.35;91.09
18697;BME280;22617;43.690;27.956;2023-02-04T08:27:12;98208.03;;;2.54;91.03
18697;BME280;22617;43.690;27.956;2023-02-04T08:32:17;98214.22;;;2.66;91.19
18697;BME280;22617;43.690;27.956;2023-02-04T08:37:21;98218.66;;;2.77;91.10
18697;BME280;22617;43.690;27.956;2023-02-04T08:42:24;98209.38;;;2.88;90.76
18697;BME280;22617;43.690;27.956;2023-02-04T08:47:29;98221.53;;;3.00;90.33
18697;BME280;22617;43.690;27.956;2023-02-04T08:52:32;98209.41;;;2.90;90.39
18697;BME280;22617;43.690;27.956;2023-02-04T08:57:37;98213.03;;;3.07;90.38
18697;BME280;22617;43.690;27.956;2023-02-04T09:02:42;98219.16;;;3.17;90.10
18697;BME280;22617;43.690;27.956;2023-02-04T09:07:46;98221.50;;;2.98;90.04
18697;BME280;22617;43.690;27.956;2023-02-04T09:12:49;98208.66;;;2.97;90.27
18697;BME280;22617;43.690;27.956;2023-02-04T09:17:58;98205.03;;;2.84;90.70
18697;BME280;22617;43.690;27.956;2023-02-04T09:23:13;98201.03;;;3.07;90.82
18697;BME280;22617;43.690;27.956;2023-02-04T09:28:17;98190.75;;;3.07;90.48
18697;BME280;22617;43.690;27.956;2023-02-04T09:33:22;98183.13;;;3.17;91.02
18697;BME280;22617;43.690;27.956;2023-02-04T09:38:26;98191.09;;;3.35;91.15
18697;BME280;22617;43.690;27.956;2023-02-04T09:43:30;98183.50;;;3.47;91.12
18697;BME280;22617;43.690;27.956;2023-02-04T09:48:37;98182.50;;;3.36;91.26
18697;BME280;22617;43.690;27.956;2023-02-04T09:53:41;98175.63;;;3.33;90.79
18697;BME280;22617;43.690;27.956;2023-02-04T09:58:44;98173.03;;;3.33;91.22
18697;BME280;22617;43.690;27.956;2023-02-04T10:03:50;98174.88;;;3.43;90.46
18697;BME280;22617;43.690;27.956;2023-02-04T10:08:54;98171.34;;;3.35;90.80
18697;BME280;22617;43.690;27.956;2023-02-04T10:13:59;98164.50;;;3.37;90.90
18697;BME280;22617;43.690;27.956;2023-02-04T10:19:06;98152.53;;;3.42;90.83
18697;BME280;22617;43.690;27.956;2023-02-04T10:24:15;98144.91;;;3.51;90.55
18697;BME280;22617;43.690;27.956;2023-02-04T10:29:23;98155.38;;;3.68;90.96
18697;BME280;22617;43.690;27.956;2023-02-04T10:34:34;98146.88;;;3.80;90.58
18697;BME280;22617;43.690;27.956;2023-02-04T10:39:41;98144.31;;;3.81;90.29
18697;BME280;22617;43.690;27.956;2023-02-04T10:44:46;98148.53;;;3.75;90.01
18697;BME280;22617;43.690;27.956;2023-02-04T10:49:56;98145.19;;;3.82;90.21
18697;BME280;22617;43.690;27.956;2023-02-04T10:55:02;98147.75;;;3.82;90.24
18697;BME280;22617;43.690;27.956;2023-02-04T11:00:15;98149.34;;;3.66;89.23
18697;BME280;22617;43.690;27.956;2023-02-04T11:05:24;98141.66;;;3.72;89.44
18697;BME280;22617;43.690;27.956;2023-02-04T11:10:32;98144.28;;;3.77;90.27
18697;BME280;22617;43.690;27.956;2023-02-04T11:15:42;98127.22;;;3.88;89.72
18697;BME280;22617;43.690;27.956;2023-02-04T11:20:48;98128.75;;;3.68;89.28
18697;BME280;22617;43.690;27.956;2023-02-04T11:26:02;98133.97;;;3.75;89.74
18697;BME280;22617;43.690;27.956;2023-02-04T11:31:13;98128.84;;;3.80;90.39
18697;BME280;22617;43.690;27.956;2023-02-04T11:36:19;98131.28;;;3.63;90.34
18697;BME280;22617;43.690;27.956;2023-02-04T11:41:26;98126.00;;;3.49;89.89
18697;BME280;22617;43.690;27.956;2023-02-04T11:46:30;98120.81;;;3.46;90.20
18697;BME280;22617;43.690;27.956;2023-02-04T11:51:35;98130.19;;;3.41;90.76
18697;BME280;22617;43.690;27.956;2023-02-04T11:56:38;98124.25;;;3.47;91.48
18697;BME280;22617;43.690;27.956;2023-02-04T12:01:42;98117.44;;;3.54;91.44
18697;BME280;22617;43.690;27.956;2023-02-04T12:06:56;98113.25;;;3.65;91.70
18697;BME280;22617;43.690;27.956;2023-02-04T12:12:01;98124.38;;;3.61;91.08
18697;BME280;22617;43.690;27.956;2023-02-04T12:17:14;98120.16;;;3.70;91.39
18697;BME280;22617;43.690;27.956;2023-02-04T12:22:19;98113.31;;;3.71;91.15
18697;BME280;22617;43.690;27.956;2023-02-04T12:27:23;98117.63;;;3.73;91.04
18697;BME280;22617;43.690;27.956;2023-02-04T12:32:26;98122.00;;;3.82;90.62
18697;BME280;22617;43.690;27.956;2023-02-04T12:37:31;98117.81;;;3.93;90.54
18697;BME280;22617;43.690;27.956;2023-02-04T12:42:35;98122.75;;;3.70;89.73
18697;BME280;22617;43.690;27.956;2023-02-04T12:47:39;98132.19;;;3.68;90.24
18697;BME280;22617;43.690;27.956;2023-02-04T12:52:43;98136.34;;;3.54;90.34
18697;BME280;22617;43.690;27.956;2023-02-04T12:57:47;98142.31;;;3.48;90.59
18697;BME280;22617;43.690;27.956;2023-02-04T13:02:50;98148.22;;;3.40;90.41
18697;BME280;22617;43.690;27.956;2023-02-04T13:07:57;98160.91;;;3.23;90.72
18697;BME280;22617;43.690;27.956;2023-02-04T13:13:00;98154.09;;;3.28;91.09
18697;BME280;22617;43.690;27.956;2023-02-04T13:18:05;98164.22;;;3.13;90.93
18697;BME280;22617;43.690;27.956;2023-02-04T13:23:10;98163.41;;;3.16;91.66
18697;BME280;22617;43.690;27.956;2023-02-04T13:28:14;98173.59;;;3.08;92.22
18697;BME280;22617;43.690;27.956;2023-02-04T13:33:17;98172.78;;;3.12;92.15
18697;BME280;22617;43.690;27.956;2023-02-04T13:38:22;98179.44;;;2.95;91.95
18697;BME280;22617;43.690;27.956;2023-02-04T13:43:26;98196.41;;;2.81;92.49
18697;BME280;22617;43.690;27.956;2023-02-04T13:48:30;98195.53;;;2.77;92.87
18697;BME280;22617;43.690;27.956;2023-02-04T13:53:35;98196.22;;;2.69;92.94
18697;BME280;22617;43.690;27.956;2023-02-04T13:58:38;98191.09;;;2.69;93.00
18697;BME280;22617;43.690;27.956;2023-02-04T14:03:44;98195.03;;;2.45;93.79
18697;BME280;22617;43.690;27.956;2023-02-04T14:08:49;98196.75;;;2.45;94.14
18697;BME280;22617;43.690;27.956;2023-02-04T14:13:53;98207.06;;;2.46;94.53
18697;BME280;22617;43.690;27.956;2023-02-04T14:18:57;98209.41;;;2.31;95.23
18697;BME280;22617;43.690;27.956;2023-02-04T14:24:02;98218.13;;;2.39;95.35
18697;BME280;22617;43.690;27.956;2023-02-04T14:29:05;98218.13;;;2.39;95.93
18697;BME280;22617;43.690;27.956;2023-02-04T14:34:09;98219.91;;;2.46;96.36
18697;BME280;22617;43.690;27.956;2023-02-04T14:39:14;98225.19;;;2.55;96.50
18697;BME280;22617;43.690;27.956;2023-02-04T14:44:17;98232.03;;;2.53;96.51
18697;BME280;22617;43.690;27.956;2023-02-04T14:49:23;98236.03;;;2.36;96.30
18697;BME280;22617;43.690;27.956;2023-02-04T14:54:28;98249.88;;;2.43;96.24
18697;BME280;22617;43.690;27.956;2023-02-04T14:59:32;98245.53;;;2.40;96.44
18697;BME280;22617;43.690;27.956;2023-02-04T15:04:36;98248.81;;;2.30;96.20
18697;BME280;22617;43.690;27.956;2023-02-04T15:09:40;98256.50;;;2.29;96.54
18697;BME280;22617;43.690;27.956;2023-02-04T15:14:45;98263.91;;;2.12;96.24
18697;BME280;22617;43.690;27.956;2023-02-04T15:19:48;98265.38;;;1.98;96.53
18697;BME280;22617;43.690;27.956;2023-02-04T15:24:54;98279.00;;;1.94;96.86
18697;BME280;22617;43.690;27.956;2023-02-04T15:30:16;98281.59;;;1.94;96.66
18697;BME280;22617;43.690;27.956;2023-02-04T15:35:56;98288.53;;;1.99;97.11
18697;BME280;22617;43.690;27.956;2023-02-04T15:41:19;98300.97;;;1.77;96.88
18697;BME280;22617;43.690;27.956;2023-02-04T15:46:42;98304.53;;;1.85;97.19
18697;BME280;22617;43.690;27.956;2023-02-04T15:51:45;98303.84;;;1.92;97.14
18697;BME280;22617;43.690;27.956;2023-02-04T15:56:50;98318.00;;;1.71;96.93
18697;BME280;22617;43.690;27.956;2023-02-04T16:01:55;98316.13;;;1.64;96.88
18697;BME280;22617;43.690;27.956;2023-02-04T16:06:58;98323.13;;;1.71;96.92
18697;BME280;22617;43.690;27.956;2023-02-04T16:12:07;98327.19;;;1.60;96.80
18697;BME280;22617;43.690;27.956;2023-02-04T16:17:10;98339.81;;;1.51;96.68
18697;BME280;22617;43.690;27.956;2023-02-04T16:22:14;98336.16;;;1.40;96.76
18697;BME280;22617;43.690;27.956;2023-02-04T16:27:19;98348.97;;;1.39;97.04
18697;BME280;22617;43.690;27.956;2023-02-04T16:32:23;98344.78;;;1.42;97.31
18697;BME280;22617;43.690;27.956;2023-02-04T16:37:26;98352.97;;;1.26;97.18
18697;BME280;22617;43.690;27.956;2023-02-04T16:42:32;98350.34;;;1.23;97.11
18697;BME280;22617;43.690;27.956;2023-02-04T16:47:36;98357.28;;;1.27;97.39
18697;BME280;22617;43.690;27.956;2023-02-04T16:52:40;98358.00;;;1.20;97.31
18697;BME280;22617;43.690;27.956;2023-02-04T16:57:45;98360.41;;;1.14;97.29
18697;BME280;22617;43.690;27.956;2023-02-04T17:02:49;98363.66;;;1.07;97.50
18697;BME280;22617;43.690;27.956;2023-02-04T17:07:53;98368.66;;;1.01;97.46
18697;BME280;22617;43.690;27.956;2023-02-04T17:12:59;98374.00;;;1.10;97.70
18697;BME280;22617;43.690;27.956;2023-02-04T17:18:03;98381.50;;;1.01;97.93
18697;BME280;22617;43.690;27.956;2023-02-04T17:23:07;98378.06;;;1.02;97.88
18697;BME280;22617;43.690;27.956;2023-02-04T17:28:12;98386.63;;;1.01;98.07
18697;BME280;22617;43.690;27.956;2023-02-04T17:33:15;98399.44;;;1.01;98.17
18697;BME280;22617;43.690;27.956;2023-02-04T17:38:19;98401.00;;;0.94;98.16
18697;BME280;22617;43.690;27.956;2023-02-04T17:43:24;98403.56;;;0.94;98.54
18697;BME280;22617;43.690;27.956;2023-02-04T17:48:28;98412.13;;;0.95;98.57
18697;BME280;22617;43.690;27.956;2023-02-04T17:53:34;98414.84;;;1.02;98.61
18697;BME280;22617;43.690;27.956;2023-02-04T17:58:41;98415.56;;;0.97;98.60
18697;BME280;22617;43.690;27.956;2023-02-04T18:03:47;98423.03;;;0.86;98.53
18697;BME280;22617;43.690;27.956;2023-02-04T18:08:51;98425.72;;;0.92;98.52
18697;BME280;22617;43.690;27.956;2023-02-04T18:14:09;98428.78;;;0.77;98.58
18697;BME280;22617;43.690;27.956;2023-02-04T18:19:17;98445.13;;;0.81;98.18
18697;BME280;22617;43.690;27.956;2023-02-04T18:24:23;98446.78;;;0.79;98.10
18697;BME280;22617;43.690;27.956;2023-02-04T18:29:34;98454.41;;;0.76;98.00
18697;BME280;22617;43.690;27.956;2023-02-04T18:34:44;98453.59;;;0.78;97.79
18697;BME280;22617;43.690;27.956;2023-02-04T18:39:48;98459.53;;;0.76;97.83
18697;BME280;22617;43.690;27.956;2023-02-04T18:44:54;98469.84;;;0.79;97.84
18697;BME280;22617;43.690;27.956;2023-02-04T18:49:58;98467.06;;;0.70;97.39
18697;BME280;22617;43.690;27.956;2023-02-04T18:55:16;98477.06;;;0.61;97.87
18697;BME280;22617;43.690;27.956;2023-02-04T19:00:27;98473.94;;;0.71;98.08
18697;BME280;22617;43.690;27.956;2023-02-04T19:05:35;98477.94;;;0.61;97.77
18697;BME280;22617;43.690;27.956;2023-02-04T19:10:43;98476.31;;;0.65;97.86
18697;BME280;22617;43.690;27.956;2023-02-04T19:15:55;98487.38;;;0.62;97.67
18697;BME280;22617;43.690;27.956;2023-02-04T19:21:22;98490.91;;;0.67;97.46
18697;BME280;22617;43.690;27.956;2023-02-04T19:26:31;98483.97;;;0.63;97.82
18697;BME280;22617;43.690;27.956;2023-02-04T19:31:36;98489.88;;;0.61;98.03
18697;BME280;22617;43.690;27.956;2023-02-04T19:36:42;98498.88;;;0.76;97.95
18697;BME280;22617;43.690;27.956;2023-02-04T19:41:47;98505.22;;;0.59;97.87
18697;BME280;22617;43.690;27.956;2023-02-04T19:46:53;98511.28;;;0.61;98.09
18697;BME280;22617;43.690;27.956;2023-02-04T19:51:58;98515.56;;;0.62;98.12
18697;BME280;22617;43.690;27.956;2023-02-04T19:57:13;98516.75;;;0.75;98.34
18697;BME280;22617;43.690;27.956;2023-02-04T20:02:31;98526.84;;;0.69;98.24
18697;BME280;22617;43.690;27.956;2023-02-04T20:07:37;98526.16;;;0.74;98.45
18697;BME280;22617;43.690;27.956;2023-02-04T20:12:41;98525.09;;;0.68;98.32
18697;BME280;22617;43.690;27.956;2023-02-04T20:17:47;98531.03;;;0.65;98.52
18697;BME280;22617;43.690;27.956;2023-02-04T20:22:52;98534.75;;;0.76;98.52
18697;BME280;22617;43.690;27.956;2023-02-04T20:27:58;98533.66;;;0.68;98.69
18697;BME280;22617;43.690;27.956;2023-02-04T20:33:21;98537.09;;;0.69;98.77
18697;BME280;22617;43.690;27.956;2023-02-04T20:38:25;98536.09;;;0.62;98.83
18697;BME280;22617;43.690;27.956;2023-02-04T20:43:33;98537.91;;;0.66;98.76
18697;BME280;22617;43.690;27.956;2023-02-04T20:48:38;98545.59;;;0.66;99.09
18697;BME280;22617;43.690;27.956;2023-02-04T20:53:46;98561.81;;;0.65;99.22
18697;BME280;22617;43.690;27.956;2023-02-04T20:58:53;98549.81;;;0.64;99.33
18697;BME280;22617;43.690;27.956;2023-02-04T21:04:00;98556.66;;;0.65;99.20
18697;BME280;22617;43.690;27.956;2023-02-04T21:09:21;98561.63;;;0.59;99.67
18697;BME280;22617;43.690;27.956;2023-02-04T21:14:26;98565.13;;;0.63;99.88
18697;BME280;22617;43.690;27.956;2023-02-04T21:19:31;98558.50;;;0.69;99.95
18697;BME280;22617;43.690;27.956;2023-02-04T21:24:36;98571.19;;;0.65;99.78
18697;BME280;22617;43.690;27.956;2023-02-04T21:29:40;98575.50;;;0.67;99.93
18697;BME280;22617;43.690;27.956;2023-02-04T21:34:45;98595.94;;;0.64;99.75
18697;BME280;22617;43.690;27.956;2023-02-04T21:39:48;98612.00;;;0.57;100.00
18697;BME280;22617;43.690;27.956;2023-02-04T21:51:35;98620.84;;;0.68;99.95
18697;BME280;22617;43.690;27.956;2023-02-04T21:56:39;98638.94;;;0.43;99.75
18697;BME280;22617;43.690;27.956;2023-02-04T22:13:27;98667.00;;;0.40;99.08
18697;BME280;22617;43.690;27.956;2023-02-04T22:18:31;98672.94;;;0.39;98.93
18697;BME280;22617;43.690;27.956;2023-02-04T22:23:34;98673.66;;;0.33;99.02
18697;BME280;22617;43.690;27.956;2023-02-04T22:28:39;98675.44;;;0.36;98.63
18697;BME280;22617;43.690;27.956;2023-02-04T22:33:42;98682.78;;;0.25;98.20
18697;BME280;22617;43.690;27.956;2023-02-04T22:38:46;98684.31;;;0.20;97.89
18697;BME280;22617;43.690;27.956;2023-02-04T22:43:51;98703.66;;;0.11;97.59
18697;BME280;22617;43.690;27.956;2023-02-04T22:48:55;98700.22;;;0.09;97.63
18697;BME280;22617;43.690;27.956;2023-02-04T22:53:58;98707.91;;;0.10;97.59
18697;BME280;22617;43.690;27.956;2023-02-04T22:59:04;98702.47;;;-0.01;96.99
18697;BME280;22617;43.690;27.956;2023-02-04T23:04:07;98710.44;;;0.09;96.96
18697;BME280;22617;43.690;27.956;2023-02-04T23:09:10;98728.63;;;-0.09;96.30
18697;BME280;22617;43.690;27.956;2023-02-04T23:14:15;98730.22;;;-0.13;96.27
18697;BME280;22617;43.690;27.956;2023-02-04T23:19:19;98729.16;;;-0.19;95.87
18697;BME280;22617;43.690;27.956;2023-02-04T23:24:23;98727.34;;;-0.22;95.75
18697;BME280;22617;43.690;27.956;2023-02-04T23:29:29;98743.09;;;-0.11;95.80
18697;BME280;22617;43.690;27.956;2023-02-04T23:34:33;98748.66;;;-0.23;95.46
18697;BME280;22617;43.690;27.956;2023-02-04T23:39:37;98750.03;;;-0.32;95.21
18697;BME280;22617;43.690;27.956;2023-02-04T23:44:42;98746.72;;;-0.30;95.41
18697;BME280;22617;43.690;27.956;2023-02-04T23:49:45;98758.03;;;-0.23;95.46
18697;BME280;22617;43.690;27.956;2023-02-04T23:54:49;98782.25;;;-0.39;95.22
18697;BME280;22617;43.690;27.956;2023-02-04T23:59:54;98790.28;;;-0.52;94.85
